Flight Track Log - Related Links

Times and Time Zones

All times are in EDT time to prevent confusion due to time zone crossing. See the SWA1199 flight status page for this flight to view local times or setup timezone preferences in your user account.


Time Position Orientation Groundspeed Altitude Reporting Facility
EDT Latitude Longitude Course Direction KTS MPH feet Rate Location/Type
Fri 07:29:29 AM 29.5222 -98.4592 125° Southeast 157 181 1,800  Level Houston Center
Fri 07:30:11 AM 29.5011 -98.4247 125° Southeast 171 197 3,000 2,388 Climbing Houston Center
Fri 07:31:12 AM 29.5147 -98.3550 77° East 240 276 5,900 2,705 Climbing Houston Center
Fri 07:32:13 AM 29.5467 -98.2722 66° East 288 331 8,500 2,656 Climbing Houston Center
Fri 07:33:14 AM 29.5833 -98.1836 65° Northeast 306 352 11,300 2,902 Climbing Houston Center
Fri 07:34:15 AM 29.6269 -98.0758 65° Northeast 343 395 14,400 2,803 Climbing Houston Center
Fri 07:35:16 AM 29.6522 -97.9664 75° East 358 412 17,000 2,508 Climbing Houston Center
Fri 07:36:17 AM 29.6533 -97.8500 89° East 363 418 19,500 2,115 Climbing Houston Center
Fri 07:37:18 AM 29.6553 -97.7253 89° East 375 432 21,300 1,869 Climbing Houston Center
Fri 07:38:19 AM 29.6556 -97.6003 90° East 388 447 23,300 1,721 Climbing Houston Center
Fri 07:39:20 AM 29.6569 -97.4739 89° East 393 452 24,800 1,366 Climbing Houston Center
Fri 07:40:22 AM 29.6583 -97.3394 89° East 415 478 26,100 1,317 Climbing Houston Center
Fri 07:41:23 AM 29.6594 -97.1994 89° East 433 498 27,500 1,230 Climbing Houston Center
Fri 07:42:24 AM 29.6594 -97.0567 90° East 443 510 28,600 1,180 Climbing Houston Center
Fri 07:43:25 AM 29.6439 -96.9100 97° East 458 527 29,900 1,230 Climbing Houston Center
Fri 07:44:26 AM 29.6267 -96.7628 98° East 471 542 31,100 1,230 Climbing Houston Center
Fri 07:45:27 AM 29.7047 -96.6508 51° Northeast 458 527 32,400 1,475 Climbing Houston Center
Fri 07:46:28 AM 29.7972 -96.5533 42° Northeast 453 521 34,100 1,512 Climbing Houston Center
Fri 07:47:30 AM 29.8856 -96.4597 43° Northeast 440 506 35,500 1,073 Climbing Houston Center
Fri 07:48:31 AM 29.9742 -96.3661 42° Northeast 433 498 36,300 689 Climbing Houston Center
Fri 07:49:32 AM 30.0622 -96.2733 42° Northeast 431 496 36,900 344 Climbing Houston Center
Fri 07:50:33 AM 30.1547 -96.1758 42° Northeast 421 484 37,000 49 Climbing Houston Center
Fri 07:51:35 AM 30.2408 -96.0850 42° Northeast 417 480 37,000  Level Houston Center
Fri 07:52:36 AM 30.3403 -95.9839 41° Northeast 423 487 37,000  Level Houston Center
Fri 07:53:37 AM 30.4281 -95.8903 43° Northeast 427 491 37,000  Level Houston Center
Fri 07:54:39 AM 30.5164 -95.7942 43° Northeast 432 497 37,000  Level Houston Center
Fri 07:55:40 AM 30.6047 -95.7006 42° Northeast 432 497 37,000  Level Houston Center
Fri 07:56:41 AM 30.6989 -95.6000 43° Northeast 430 495 37,000  Level Houston Center
Fri 07:57:42 AM 30.7869 -95.5053 43° Northeast 430 495 37,000  Level Houston Center
Fri 07:58:44 AM 30.8764 -95.4097 43° Northeast 436 502 37,000  Level Houston Center
Fri 07:59:45 AM 30.9650 -95.3136 43° Northeast 436 502 37,000  Level Houston Center
Fri 08:00:46 AM 31.0544 -95.2175 43° Northeast 436 502 37,000  Level Houston Center
Fri 08:01:47 AM 31.1436 -95.1194 43° Northeast 438 504 37,000  Level Houston Center
Fri 08:02:49 AM 31.2339 -95.0228 42° Northeast 438 504 37,000  Level Houston Center
Fri 08:03:50 AM 31.3253 -94.9247 42° Northeast 437 503 37,000  Level Houston Center
Fri 08:04:52 AM 31.4175 -94.8239 43° Northeast 443 510 37,000  Level Houston Center
Fri 08:05:53 AM 31.5064 -94.7242 44° Northeast 439 505 37,000  Level Houston Center
Fri 08:06:54 AM 31.5947 -94.6258 43° Northeast 435 501 37,000  Level Houston Center
Fri 08:07:56 AM 31.6822 -94.5289 43° Northeast 433 498 37,000  Level Houston Center
Fri 08:08:57 AM 31.7864 -94.4142 43° Northeast 429 494 37,000  Level Houston Center
Fri 08:09:59 AM 31.8731 -94.3164 44° Northeast 429 494 37,000  Level Houston Center
Fri 08:11:00 AM 31.9597 -94.2208 43° Northeast 428 493 37,000  Level Houston Center
Fri 08:12:02 AM 32.0450 -94.1267 43° Northeast 424 488 37,000  Level Houston Center
Fri 08:13:06 AM 32.1344 -94.0278 43° Northeast 423 487 37,000  Level Fort Worth Center
Fri 08:14:06 AM 32.2214 -93.9192 47° Northeast 418 481 37,000  Level Fort Worth Center
Fri 08:15:06 AM 32.3064 -93.8297 42° Northeast 412 474 37,000  Level Fort Worth Center
Fri 08:16:06 AM 32.3914 -93.7306 45° Northeast 418 481 37,000  Level Fort Worth Center
Fri 08:17:06 AM 32.4761 -93.6358 43° Northeast 413 475 37,000  Level Fort Worth Center
Fri 08:18:06 AM 32.5631 -93.5386 43° Northeast 413 475 37,000  Level Fort Worth Center
Fri 08:19:06 AM 32.6456 -93.4414 45° Northeast 413 475 37,000  Level Fort Worth Center
Fri 08:20:06 AM 32.7322 -93.3461 43° Northeast 413 475 37,000  Level Fort Worth Center
Fri 08:21:06 AM 32.8167 -93.2483 44° Northeast 413 475 37,000  Level Fort Worth Center
Fri 08:22:06 AM 32.9011 -93.1506 44° Northeast 413 475 37,000  Level Fort Worth Center
Fri 08:23:06 AM 32.9872 -93.0497 44° Northeast 413 475 37,000  Level Fort Worth Center
Fri 08:24:06 AM 33.0717 -92.9564 43° Northeast 418 481 37,000  Level Fort Worth Center
Fri 08:25:06 AM 33.1578 -92.8578 44° Northeast 418 481 37,000  Level Fort Worth Center
Fri 08:26:06 AM 33.2419 -92.7592 44° Northeast 418 481 37,000  Level Fort Worth Center
Fri 08:27:06 AM 33.3194 -92.6531 49° Northeast 413 475 37,000  Level Fort Worth Center
Fri 08:29:31 AM 33.4906 -92.3872 52° Northeast 425 489 37,000  Level Memphis Center
Fri 08:30:31 AM 33.5631 -92.2792 51° Northeast 413 475 37,000  Level Memphis Center
Fri 08:31:31 AM 33.6358 -92.1711 51° Northeast 413 475 37,000  Level Memphis Center
Fri 08:32:31 AM 33.7061 -92.0653 51° Northeast 413 475 37,000  Level Memphis Center
Fri 08:33:31 AM 33.7717 -91.9989 40° Northeast 433 498 37,000  Level Memphis Center
Fri 08:34:31 AM 33.9014 -91.9714 10° North 420 483 37,000  Level Memphis Center
Fri 08:35:31 AM 34.0000 -91.9306 19° North 376 433 37,000  Level Memphis Center
Fri 08:36:31 AM 34.0661 -91.8189 54° Northeast 370 426 37,000  Level Memphis Center
Fri 08:37:31 AM 34.1197 -91.6994 62° Northeast 386 444 37,000  Level Memphis Center
Fri 08:38:31 AM 34.1792 -91.5875 57° Northeast 394 453 37,000  Level Memphis Center
Fri 08:39:31 AM 34.2431 -91.4678 57° Northeast 407 468 37,000  Level Memphis Center
Fri 08:40:31 AM 34.3044 -91.3503 58° Northeast 407 468 37,000  Level Memphis Center
Fri 08:41:31 AM 34.3658 -91.2378 57° Northeast 407 468 37,000  Level Memphis Center
Fri 08:42:31 AM 34.4292 -91.1175 57° Northeast 407 468 37,000  Level Memphis Center
Fri 08:43:31 AM 34.4903 -91.0047 57° Northeast 412 474 37,000  Level Memphis Center
Fri 08:44:31 AM 34.5514 -90.8892 57° Northeast 403 464 37,000  Level Memphis Center
Fri 08:45:31 AM 34.6125 -90.7683 58° Northeast 409 471 37,000  Level Memphis Center
Fri 08:46:31 AM 34.6669 -90.6628 58° Northeast 409 471 37,000  Level Memphis Center
Fri 08:47:31 AM 34.7278 -90.5492 57° Northeast 407 468 37,000  Level Memphis Center
Fri 08:48:31 AM 34.7903 -90.4306 57° Northeast 407 468 37,000  Level Memphis Center
Fri 08:49:31 AM 34.8508 -90.3142 58° Northeast 407 468 37,000  Level Memphis Center
Fri 08:50:31 AM 34.9133 -90.1950 57° Northeast 413 475 37,000 -150 Level Memphis Center
Fri 08:51:31 AM 34.9819 -90.0631 58° Northeast 408 470 36,700 -1,000 Descending Memphis Center
Fri 08:52:31 AM 35.0400 -89.9336 61° Northeast 417 480 35,000 -850 Descending Memphis Center
Fri 08:53:31 AM 35.0833 -89.7964 69° East 423 487 35,000  Level Memphis Center
Fri 08:54:31 AM 35.1283 -89.6564 69° East 435 501 35,000  Level Memphis Center
Fri 08:55:31 AM 35.1733 -89.5189 68° East 435 501 35,000  Level Memphis Center
Fri 08:56:31 AM 35.2142 -89.3964 68° East 435 501 35,000  Level Memphis Center
Fri 08:57:31 AM 35.2569 -89.2611 69° East 429 494 35,000  Level Memphis Center
Fri 08:58:31 AM 35.3017 -89.1283 68° East 429 494 35,000 -350 Level Memphis Center
Fri 08:59:31 AM 35.3461 -88.9900 68° East 424 488 34,300 -800 Descending Memphis Center
Fri 09:00:31 AM 35.3903 -88.8569 68° East 424 488 33,400 -850 Descending Memphis Center
Fri 09:01:31 AM 35.4283 -88.7264 70° East 418 481 32,600 -850 Descending Memphis Center
Fri 09:02:31 AM 35.4725 -88.5903 68° East 418 481 31,700 -900 Descending Memphis Center
Fri 09:03:31 AM 35.5183 -88.4542 67° East 418 481 30,800 -1,050 Descending Memphis Center
Fri 09:04:31 AM 35.5681 -88.3025 68° East 418 481 29,600 -1,500 Descending Memphis Center
Fri 09:05:31 AM 35.6117 -88.1686 68° East 418 481 27,800 -2,000 Descending Memphis Center
Fri 09:06:31 AM 35.6450 -88.0450 72° East 397 457 25,600 -1,750 Descending Memphis Center
Fri 09:07:31 AM 35.6822 -87.9239 69° East 382 440 24,300 -1,100 Descending Memphis Center
Fri 09:08:31 AM 35.7175 -87.8128 69° East 363 418 23,400 -1,450 Descending Memphis Center
Fri 09:09:31 AM 35.7631 -87.6939 65° Northeast 369 425 21,400 -2,100 Descending Memphis Center
Fri 09:10:31 AM 35.8106 -87.5769 63° Northeast 369 425 19,200 -1,950 Descending Memphis Center
Fri 09:11:31 AM 35.8558 -87.4706 62° Northeast 369 425 17,500 -1,550 Descending Memphis Center
Fri 09:12:31 AM 35.9036 -87.3689 60° Northeast 349 402 16,100 -1,700 Descending Memphis Center
Fri 09:13:31 AM 35.9514 -87.2800 56° Northeast 318 366 14,100 -1,750 Descending Memphis Center
Fri 09:14:31 AM 35.9972 -87.1936 57° Northeast 310 357 12,600 -1,400 Descending Memphis Center
Fri 09:15:31 AM 36.0392 -87.1200 55° Northeast 299 344 11,300 -1,650 Descending Memphis Center
Fri 09:16:31 AM 36.0700 -87.0264 68° East 287 330 9,300 -1,800 Descending Memphis Center
Fri 09:17:31 AM 36.0903 -86.9331 75° East 281 323 7,700 -1,650 Descending Memphis Center
Fri 09:18:31 AM 36.1214 -86.8444 66° East 281 323 6,000 -1,400 Descending Memphis Center
Fri 09:19:31 AM 36.1847 -86.7981 31° Northeast 250 288 4,900 -950 Descending Memphis Center
Fri 09:20:31 AM 36.2419 -86.7594 29° Northeast 239 275 4,100 -700 Descending Memphis Center
Fri 09:21:31 AM 36.2781 -86.7142 45° Northeast 204 235 3,500 -800 Descending Memphis Center
Fri 09:22:31 AM 36.2617 -86.6558 109° East 155 178 2,500 -650 Descending Memphis Center
Fri 09:23:31 AM 36.2178 -86.6475 171° South 122 140 2,200 -500 Descending Memphis Center
Fri 09:24:31 AM 36.1825 -86.6594 195° South 133 153 1,500 -700 Descending Memphis Center
Fri 09:27:00 AM 36.1167 -86.6667 125° Southeast  Level FlightAware Approximate
Fri 09:34:00 AM 36.1245 -86.6782 125° Southeast  Level Estimated

Login

Don't have an account? Register now (free) for customized features, flight alerts, and more!